sensor_id;sensor_type;location;lat;lon;timestamp;P1;durP1;ratioP1;P2;durP2;ratioP2
52608;SDS011;38503;48.544;12.142;2022-11-15T00:00:54;51.20;;;35.73;;
52608;SDS011;38503;48.544;12.142;2022-11-15T00:03:24;49.93;;;38.27;;
52608;SDS011;38503;48.544;12.142;2022-11-15T00:05:53;50.47;;;36.77;;
52608;SDS011;38503;48.544;12.142;2022-11-15T00:08:20;52.70;;;36.80;;
52608;SDS011;38503;48.544;12.142;2022-11-15T00:10:56;54.93;;;37.93;;
52608;SDS011;38503;48.544;12.142;2022-11-15T00:13:24;54.93;;;39.23;;
52608;SDS011;38503;48.544;12.142;2022-11-15T00:15:51;52.50;;;39.90;;
52608;SDS011;38503;48.544;12.142;2022-11-15T00:18:18;58.67;;;41.07;;
52608;SDS011;38503;48.544;12.142;2022-11-15T00:20:45;49.87;;;36.83;;
52608;SDS011;38503;48.544;12.142;2022-11-15T00:23:12;53.23;;;39.10;;
52608;SDS011;38503;48.544;12.142;2022-11-15T00:25:39;50.23;;;36.73;;
52608;SDS011;38503;48.544;12.142;2022-11-15T00:28:06;55.73;;;38.73;;
52608;SDS011;38503;48.544;12.142;2022-11-15T00:30:32;51.60;;;38.50;;
52608;SDS011;38503;48.544;12.142;2022-11-15T00:33:04;58.07;;;38.43;;
52608;SDS011;38503;48.544;12.142;2022-11-15T00:35:32;47.90;;;35.03;;
52608;SDS011;38503;48.544;12.142;2022-11-15T00:38:00;45.57;;;34.47;;
52608;SDS011;38503;48.544;12.142;2022-11-15T00:40:27;46.20;;;33.47;;
52608;SDS011;38503;48.544;12.142;2022-11-15T00:42:55;42.13;;;32.23;;
52608;SDS011;38503;48.544;12.142;2022-11-15T00:45:22;47.83;;;33.20;;
52608;SDS011;38503;48.544;12.142;2022-11-15T00:47:49;41.77;;;30.90;;
52608;SDS011;38503;48.544;12.142;2022-11-15T00:50:16;46.70;;;32.73;;
52608;SDS011;38503;48.544;12.142;2022-11-15T00:52:43;42.17;;;28.90;;
52608;SDS011;38503;48.544;12.142;2022-11-15T00:55:16;43.77;;;30.23;;
52608;SDS011;38503;48.544;12.142;2022-11-15T00:57:45;39.00;;;29.40;;
52608;SDS011;38503;48.544;12.142;2022-11-15T01:00:12;40.20;;;29.33;;
52608;SDS011;38503;48.544;12.142;2022-11-15T01:02:39;39.73;;;29.63;;
52608;SDS011;38503;48.544;12.142;2022-11-15T01:05:06;43.40;;;28.37;;
52608;SDS011;38503;48.544;12.142;2022-11-15T01:07:34;39.23;;;27.67;;
52608;SDS011;38503;48.544;12.142;2022-11-15T01:10:01;38.37;;;27.10;;
52608;SDS011;38503;48.544;12.142;2022-11-15T01:12:28;33.87;;;25.70;;
52608;SDS011;38503;48.544;12.142;2022-11-15T01:14:55;33.87;;;25.33;;
52608;SDS011;38503;48.544;12.142;2022-11-15T01:17:22;33.93;;;25.30;;
52608;SDS011;38503;48.544;12.142;2022-11-15T01:19:49;36.30;;;25.53;;
52608;SDS011;38503;48.544;12.142;2022-11-15T01:22:16;31.83;;;24.83;;
52608;SDS011;38503;48.544;12.142;2022-11-15T01:24:43;34.30;;;24.83;;
52608;SDS011;38503;48.544;12.142;2022-11-15T01:27:10;32.70;;;23.27;;
52608;SDS011;38503;48.544;12.142;2022-11-15T01:29:37;30.20;;;22.90;;
52608;SDS011;38503;48.544;12.142;2022-11-15T01:32:04;31.77;;;23.03;;
52608;SDS011;38503;48.544;12.142;2022-11-15T01:34:30;29.10;;;22.13;;
52608;SDS011;38503;48.544;12.142;2022-11-15T01:36:57;29.47;;;22.17;;
52608;SDS011;38503;48.544;12.142;2022-11-15T01:39:24;31.13;;;23.20;;
52608;SDS011;38503;48.544;12.142;2022-11-15T01:41:52;26.13;;;21.27;;
52608;SDS011;38503;48.544;12.142;2022-11-15T01:47:02;24.90;;;19.77;;
52608;SDS011;38503;48.544;12.142;2022-11-15T01:49:33;25.70;;;19.47;;
52608;SDS011;38503;48.544;12.142;2022-11-15T01:52:05;26.47;;;18.60;;
52608;SDS011;38503;48.544;12.142;2022-11-15T01:54:35;26.43;;;19.00;;
52608;SDS011;38503;48.544;12.142;2022-11-15T01:57:04;27.50;;;18.03;;
52608;SDS011;38503;48.544;12.142;2022-11-15T01:59:36;25.07;;;19.60;;
52608;SDS011;38503;48.544;12.142;2022-11-15T02:02:06;23.90;;;18.97;;
52608;SDS011;38503;48.544;12.142;2022-11-15T02:04:34;23.90;;;18.13;;
52608;SDS011;38503;48.544;12.142;2022-11-15T02:07:05;28.43;;;17.60;;
52608;SDS011;38503;48.544;12.142;2022-11-15T02:09:37;23.60;;;18.73;;
52608;SDS011;38503;48.544;12.142;2022-11-15T02:12:05;25.50;;;18.60;;
52608;SDS011;38503;48.544;12.142;2022-11-15T02:14:34;27.33;;;20.17;;
52608;SDS011;38503;48.544;12.142;2022-11-15T02:22:43;29.80;;;21.73;;
52608;SDS011;38503;48.544;12.142;2022-11-15T02:30:57;33.77;;;22.97;;
52608;SDS011;38503;48.544;12.142;2022-11-15T02:41:46;32.40;;;23.70;;
52608;SDS011;38503;48.544;12.142;2022-11-15T02:44:25;31.83;;;23.93;;
52608;SDS011;38503;48.544;12.142;2022-11-15T02:46:59;32.83;;;25.20;;
52608;SDS011;38503;48.544;12.142;2022-11-15T02:49:43;30.47;;;23.77;;
52608;SDS011;38503;48.544;12.142;2022-11-15T02:52:16;25.07;;;19.43;;
52608;SDS011;38503;48.544;12.142;2022-11-15T02:57:30;35.77;;;24.87;;
52608;SDS011;38503;48.544;12.142;2022-11-15T03:02:36;25.43;;;19.70;;
52608;SDS011;38503;48.544;12.142;2022-11-15T03:05:22;24.67;;;19.13;;
52608;SDS011;38503;48.544;12.142;2022-11-15T03:08:11;24.47;;;18.13;;
52608;SDS011;38503;48.544;12.142;2022-11-15T03:16:09;21.23;;;16.40;;
52608;SDS011;38503;48.544;12.142;2022-11-15T03:19:00;21.57;;;16.13;;
52608;SDS011;38503;48.544;12.142;2022-11-15T03:21:30;22.00;;;16.73;;
52608;SDS011;38503;48.544;12.142;2022-11-15T03:24:00;24.70;;;18.10;;
52608;SDS011;38503;48.544;12.142;2022-11-15T03:26:31;23.37;;;17.90;;
52608;SDS011;38503;48.544;12.142;2022-11-15T03:29:05;24.37;;;18.50;;
52608;SDS011;38503;48.544;12.142;2022-11-15T03:31:42;28.57;;;18.73;;
52608;SDS011;38503;48.544;12.142;2022-11-15T03:36:46;28.00;;;19.73;;
52608;SDS011;38503;48.544;12.142;2022-11-15T03:39:14;25.90;;;20.10;;
52608;SDS011;38503;48.544;12.142;2022-11-15T03:49:47;29.30;;;21.47;;
52608;SDS011;38503;48.544;12.142;2022-11-15T03:52:20;24.70;;;19.13;;
52608;SDS011;38503;48.544;12.142;2022-11-15T03:54:52;26.40;;;18.70;;
52608;SDS011;38503;48.544;12.142;2022-11-15T03:57:21;26.43;;;19.43;;
52608;SDS011;38503;48.544;12.142;2022-11-15T03:59:48;28.43;;;20.77;;
52608;SDS011;38503;48.544;12.142;2022-11-15T04:02:15;27.57;;;19.83;;
52608;SDS011;38503;48.544;12.142;2022-11-15T04:04:41;29.50;;;20.80;;
52608;SDS011;38503;48.544;12.142;2022-11-15T04:07:08;28.87;;;20.27;;
52608;SDS011;38503;48.544;12.142;2022-11-15T04:09:35;28.70;;;18.97;;
52608;SDS011;38503;48.544;12.142;2022-11-15T04:12:25;25.47;;;19.47;;
52608;SDS011;38503;48.544;12.142;2022-11-15T04:15:01;30.63;;;20.03;;
52608;SDS011;38503;48.544;12.142;2022-11-15T04:20:15;28.60;;;19.47;;
52608;SDS011;38503;48.544;12.142;2022-11-15T04:23:03;34.90;;;19.57;;
52608;SDS011;38503;48.544;12.142;2022-11-15T04:25:51;27.90;;;19.13;;
52608;SDS011;38503;48.544;12.142;2022-11-15T04:28:20;28.97;;;19.40;;
52608;SDS011;38503;48.544;12.142;2022-11-15T04:30:47;28.90;;;19.33;;
52608;SDS011;38503;48.544;12.142;2022-11-15T04:33:14;25.23;;;18.17;;
52608;SDS011;38503;48.544;12.142;2022-11-15T04:35:42;26.97;;;19.13;;
52608;SDS011;38503;48.544;12.142;2022-11-15T04:38:10;28.30;;;19.07;;
52608;SDS011;38503;48.544;12.142;2022-11-15T04:40:37;27.27;;;19.80;;
52608;SDS011;38503;48.544;12.142;2022-11-15T04:43:04;28.17;;;20.33;;
52608;SDS011;38503;48.544;12.142;2022-11-15T04:45:31;27.30;;;20.77;;
52608;SDS011;38503;48.544;12.142;2022-11-15T04:47:58;27.30;;;18.77;;
52608;SDS011;38503;48.544;12.142;2022-11-15T04:50:25;28.90;;;19.87;;
52608;SDS011;38503;48.544;12.142;2022-11-15T04:52:53;31.50;;;20.47;;
52608;SDS011;38503;48.544;12.142;2022-11-15T04:55:20;29.60;;;21.53;;
52608;SDS011;38503;48.544;12.142;2022-11-15T04:58:00;29.10;;;20.17;;
52608;SDS011;38503;48.544;12.142;2022-11-15T05:00:28;26.33;;;18.83;;
52608;SDS011;38503;48.544;12.142;2022-11-15T05:02:56;27.93;;;20.03;;
52608;SDS011;38503;48.544;12.142;2022-11-15T05:05:42;27.97;;;18.40;;
52608;SDS011;38503;48.544;12.142;2022-11-15T05:08:09;31.17;;;19.63;;
52608;SDS011;38503;48.544;12.142;2022-11-15T05:10:38;27.83;;;19.63;;
52608;SDS011;38503;48.544;12.142;2022-11-15T05:13:05;28.67;;;20.30;;
52608;SDS011;38503;48.544;12.142;2022-11-15T05:15:32;32.50;;;19.53;;
52608;SDS011;38503;48.544;12.142;2022-11-15T05:17:59;39.20;;;19.90;;
52608;SDS011;38503;48.544;12.142;2022-11-15T05:20:26;37.33;;;21.33;;
52608;SDS011;38503;48.544;12.142;2022-11-15T05:22:53;37.27;;;20.47;;
52608;SDS011;38503;48.544;12.142;2022-11-15T05:25:22;34.30;;;21.37;;
52608;SDS011;38503;48.544;12.142;2022-11-15T05:27:49;40.97;;;22.03;;
52608;SDS011;38503;48.544;12.142;2022-11-15T05:30:16;42.63;;;23.97;;
52608;SDS011;38503;48.544;12.142;2022-11-15T05:32:43;40.37;;;22.27;;
52608;SDS011;38503;48.544;12.142;2022-11-15T05:35:15;90.90;;;26.87;;
52608;SDS011;38503;48.544;12.142;2022-11-15T05:37:48;55.50;;;23.90;;
52608;SDS011;38503;48.544;12.142;2022-11-15T05:40:15;49.80;;;23.77;;
52608;SDS011;38503;48.544;12.142;2022-11-15T05:42:42;49.83;;;22.57;;
52608;SDS011;38503;48.544;12.142;2022-11-15T05:45:10;45.57;;;21.37;;
52608;SDS011;38503;48.544;12.142;2022-11-15T05:47:37;33.17;;;19.97;;
52608;SDS011;38503;48.544;12.142;2022-11-15T05:50:06;40.73;;;19.53;;
52608;SDS011;38503;48.544;12.142;2022-11-15T05:52:34;41.70;;;21.67;;
52608;SDS011;38503;48.544;12.142;2022-11-15T05:55:05;97.33;;;28.80;;
52608;SDS011;38503;48.544;12.142;2022-11-15T05:57:34;88.53;;;25.03;;
52608;SDS011;38503;48.544;12.142;2022-11-15T06:00:03;58.37;;;24.77;;
52608;SDS011;38503;48.544;12.142;2022-11-15T06:02:30;47.03;;;22.60;;
52608;SDS011;38503;48.544;12.142;2022-11-15T06:04:57;46.97;;;23.07;;
52608;SDS011;38503;48.544;12.142;2022-11-15T06:07:24;37.83;;;22.73;;
52608;SDS011;38503;48.544;12.142;2022-11-15T06:09:51;42.17;;;23.83;;
52608;SDS011;38503;48.544;12.142;2022-11-15T06:12:18;70.87;;;28.63;;
52608;SDS011;38503;48.544;12.142;2022-11-15T06:14:45;87.80;;;31.50;;
52608;SDS011;38503;48.544;12.142;2022-11-15T06:17:11;116.83;;;33.40;;
52608;SDS011;38503;48.544;12.142;2022-11-15T06:19:38;67.67;;;27.53;;
52608;SDS011;38503;48.544;12.142;2022-11-15T06:22:05;77.23;;;31.83;;
52608;SDS011;38503;48.544;12.142;2022-11-15T06:24:32;65.87;;;29.50;;
52608;SDS011;38503;48.544;12.142;2022-11-15T06:26:59;65.73;;;27.70;;
52608;SDS011;38503;48.544;12.142;2022-11-15T06:29:26;54.33;;;26.40;;
52608;SDS011;38503;48.544;12.142;2022-11-15T06:31:53;43.37;;;23.10;;
52608;SDS011;38503;48.544;12.142;2022-11-15T06:34:20;47.53;;;24.13;;
52608;SDS011;38503;48.544;12.142;2022-11-15T06:36:46;36.07;;;23.63;;
52608;SDS011;38503;48.544;12.142;2022-11-15T06:39:13;32.07;;;22.47;;
52608;SDS011;38503;48.544;12.142;2022-11-15T06:41:40;30.60;;;21.87;;
52608;SDS011;38503;48.544;12.142;2022-11-15T06:44:07;31.50;;;21.07;;
52608;SDS011;38503;48.544;12.142;2022-11-15T06:46:34;33.77;;;22.13;;
52608;SDS011;38503;48.544;12.142;2022-11-15T06:49:01;31.67;;;21.23;;
52608;SDS011;38503;48.544;12.142;2022-11-15T06:51:34;27.33;;;20.07;;
52608;SDS011;38503;48.544;12.142;2022-11-15T06:54:01;28.27;;;20.17;;
52608;SDS011;38503;48.544;12.142;2022-11-15T06:56:28;26.60;;;18.10;;
52608;SDS011;38503;48.544;12.142;2022-11-15T06:58:55;34.70;;;20.83;;
52608;SDS011;38503;48.544;12.142;2022-11-15T07:01:22;38.13;;;22.37;;
52608;SDS011;38503;48.544;12.142;2022-11-15T07:03:51;48.17;;;28.90;;
52608;SDS011;38503;48.544;12.142;2022-11-15T07:06:18;49.07;;;25.53;;
52608;SDS011;38503;48.544;12.142;2022-11-15T07:08:45;42.70;;;24.37;;
52608;SDS011;38503;48.544;12.142;2022-11-15T07:11:12;36.27;;;23.53;;
52608;SDS011;38503;48.544;12.142;2022-11-15T07:13:38;41.63;;;23.57;;
52608;SDS011;38503;48.544;12.142;2022-11-15T07:16:06;42.50;;;24.30;;
52608;SDS011;38503;48.544;12.142;2022-11-15T07:18:34;40.70;;;23.70;;
52608;SDS011;38503;48.544;12.142;2022-11-15T07:21:05;38.00;;;23.70;;
52608;SDS011;38503;48.544;12.142;2022-11-15T07:23:38;42.30;;;24.50;;
52608;SDS011;38503;48.544;12.142;2022-11-15T07:26:05;35.63;;;21.47;;
52608;SDS011;38503;48.544;12.142;2022-11-15T07:28:33;34.20;;;21.40;;
52608;SDS011;38503;48.544;12.142;2022-11-15T07:31:02;34.13;;;18.23;;
52608;SDS011;38503;48.544;12.142;2022-11-15T07:33:29;28.90;;;16.90;;
52608;SDS011;38503;48.544;12.142;2022-11-15T07:36:00;26.40;;;15.73;;
52608;SDS011;38503;48.544;12.142;2022-11-15T07:38:29;28.53;;;16.07;;
52608;SDS011;38503;48.544;12.142;2022-11-15T07:40:56;27.23;;;16.87;;
52608;SDS011;38503;48.544;12.142;2022-11-15T07:43:25;23.43;;;16.20;;
52608;SDS011;38503;48.544;12.142;2022-11-15T07:45:54;26.50;;;14.87;;
52608;SDS011;38503;48.544;12.142;2022-11-15T07:48:24;23.53;;;16.70;;
52608;SDS011;38503;48.544;12.142;2022-11-15T07:51:10;25.87;;;16.47;;
52608;SDS011;38503;48.544;12.142;2022-11-15T07:53:39;26.13;;;17.57;;
52608;SDS011;38503;48.544;12.142;2022-11-15T07:56:07;26.23;;;18.33;;
52608;SDS011;38503;48.544;12.142;2022-11-15T07:58:34;23.40;;;17.93;;
52608;SDS011;38503;48.544;12.142;2022-11-15T08:01:02;26.43;;;18.47;;
52608;SDS011;38503;48.544;12.142;2022-11-15T08:03:34;25.73;;;18.90;;
52608;SDS011;38503;48.544;12.142;2022-11-15T08:06:02;21.33;;;16.53;;
52608;SDS011;38503;48.544;12.142;2022-11-15T08:08:28;26.20;;;17.50;;
52608;SDS011;38503;48.544;12.142;2022-11-15T08:10:57;22.07;;;16.83;;
52608;SDS011;38503;48.544;12.142;2022-11-15T08:13:24;23.83;;;17.23;;
52608;SDS011;38503;48.544;12.142;2022-11-15T08:15:51;20.90;;;16.73;;
52608;SDS011;38503;48.544;12.142;2022-11-15T08:18:28;23.37;;;16.47;;
52608;SDS011;38503;48.544;12.142;2022-11-15T08:20:57;18.40;;;15.13;;
52608;SDS011;38503;48.544;12.142;2022-11-15T08:23:26;25.43;;;15.93;;
52608;SDS011;38503;48.544;12.142;2022-11-15T08:25:58;22.53;;;15.20;;
52608;SDS011;38503;48.544;12.142;2022-11-15T08:28:30;23.67;;;17.07;;
52608;SDS011;38503;48.544;12.142;2022-11-15T08:30:57;24.00;;;16.77;;
52608;SDS011;38503;48.544;12.142;2022-11-15T08:33:24;21.13;;;15.37;;
52608;SDS011;38503;48.544;12.142;2022-11-15T08:35:51;19.43;;;15.07;;
52608;SDS011;38503;48.544;12.142;2022-11-15T08:38:18;18.00;;;13.27;;
52608;SDS011;38503;48.544;12.142;2022-11-15T08:40:45;16.23;;;14.17;;
52608;SDS011;38503;48.544;12.142;2022-11-15T08:43:12;16.93;;;13.77;;
52608;SDS011;38503;48.544;12.142;2022-11-15T08:45:39;14.17;;;12.70;;
52608;SDS011;38503;48.544;12.142;2022-11-15T08:48:05;20.27;;;15.07;;
52608;SDS011;38503;48.544;12.142;2022-11-15T08:50:32;16.97;;;14.30;;
52608;SDS011;38503;48.544;12.142;2022-11-15T08:53:06;16.77;;;14.23;;
52608;SDS011;38503;48.544;12.142;2022-11-15T08:55:37;16.10;;;14.37;;
52608;SDS011;38503;48.544;12.142;2022-11-15T08:58:05;13.77;;;12.30;;
52608;SDS011;38503;48.544;12.142;2022-11-15T09:00:32;14.00;;;12.03;;
52608;SDS011;38503;48.544;12.142;2022-11-15T09:02:59;14.50;;;11.80;;
52608;SDS011;38503;48.544;12.142;2022-11-15T09:05:32;14.13;;;12.20;;
52608;SDS011;38503;48.544;12.142;2022-11-15T09:08:02;12.80;;;11.47;;
52608;SDS011;38503;48.544;12.142;2022-11-15T09:10:50;13.50;;;12.10;;
52608;SDS011;38503;48.544;12.142;2022-11-15T09:13:17;17.40;;;12.00;;
52608;SDS011;38503;48.544;12.142;2022-11-15T09:15:44;13.03;;;11.73;;
52608;SDS011;38503;48.544;12.142;2022-11-15T09:18:11;13.73;;;12.43;;
52608;SDS011;38503;48.544;12.142;2022-11-15T09:20:38;12.57;;;11.27;;
52608;SDS011;38503;48.544;12.142;2022-11-15T09:23:07;14.13;;;10.93;;
52608;SDS011;38503;48.544;12.142;2022-11-15T09:25:34;13.93;;;11.23;;
52608;SDS011;38503;48.544;12.142;2022-11-15T09:28:04;13.63;;;11.77;;
52608;SDS011;38503;48.544;12.142;2022-11-15T09:30:32;15.37;;;12.20;;
52608;SDS011;38503;48.544;12.142;2022-11-15T09:33:05;13.93;;;11.90;;
52608;SDS011;38503;48.544;12.142;2022-11-15T09:35:33;16.47;;;12.00;;
52608;SDS011;38503;48.544;12.142;2022-11-15T09:38:01;12.90;;;11.57;;
52608;SDS011;38503;48.544;12.142;2022-11-15T09:40:29;15.57;;;12.33;;
52608;SDS011;38503;48.544;12.142;2022-11-15T09:43:46;14.23;;;11.27;;
52608;SDS011;38503;48.544;12.142;2022-11-15T09:45:57;14.67;;;10.83;;
52608;SDS011;38503;48.544;12.142;2022-11-15T09:48:46;13.83;;;12.17;;
52608;SDS011;38503;48.544;12.142;2022-11-15T09:54:03;12.90;;;11.60;;
52608;SDS011;38503;48.544;12.142;2022-11-15T09:56:53;12.83;;;11.40;;
52608;SDS011;38503;48.544;12.142;2022-11-15T09:59:40;13.07;;;10.93;;
52608;SDS011;38503;48.544;12.142;2022-11-15T10:05:00;13.50;;;11.73;;
52608;SDS011;38503;48.544;12.142;2022-11-15T10:07:34;13.93;;;12.50;;
52608;SDS011;38503;48.544;12.142;2022-11-15T10:10:20;12.90;;;11.57;;
52608;SDS011;38503;48.544;12.142;2022-11-15T10:12:53;13.63;;;12.20;;
52608;SDS011;38503;48.544;12.142;2022-11-15T10:15:21;13.50;;;12.13;;
52608;SDS011;38503;48.544;12.142;2022-11-15T10:20:54;12.00;;;10.80;;
52608;SDS011;38503;48.544;12.142;2022-11-15T10:23:24;12.33;;;11.13;;
52608;SDS011;38503;48.544;12.142;2022-11-15T10:25:57;12.90;;;11.37;;
52608;SDS011;38503;48.544;12.142;2022-11-15T10:28:32;12.13;;;10.93;;
52608;SDS011;38503;48.544;12.142;2022-11-15T10:31:00;12.13;;;10.93;;
52608;SDS011;38503;48.544;12.142;2022-11-15T10:33:34;12.73;;;11.43;;
52608;SDS011;38503;48.544;12.142;2022-11-15T10:41:18;14.20;;;12.63;;
52608;SDS011;38503;48.544;12.142;2022-11-15T10:44:07;15.33;;;13.73;;
52608;SDS011;38503;48.544;12.142;2022-11-15T10:46:50;14.03;;;12.50;;
52608;SDS011;38503;48.544;12.142;2022-11-15T10:49:33;14.13;;;12.27;;
52608;SDS011;38503;48.544;12.142;2022-11-15T10:52:19;13.03;;;11.73;;
52608;SDS011;38503;48.544;12.142;2022-11-15T10:54:53;13.40;;;12.10;;
52608;SDS011;38503;48.544;12.142;2022-11-15T10:57:23;13.43;;;11.83;;
52608;SDS011;38503;48.544;12.142;2022-11-15T11:02:45;15.73;;;14.03;;
52608;SDS011;38503;48.544;12.142;2022-11-15T11:05:35;15.10;;;13.57;;
52608;SDS011;38503;48.544;12.142;2022-11-15T11:10:51;15.93;;;14.40;;
52608;SDS011;38503;48.544;12.142;2022-11-15T11:13:32;16.93;;;13.47;;
52608;SDS011;38503;48.544;12.142;2022-11-15T11:21:46;13.77;;;12.47;;
52608;SDS011;38503;48.544;12.142;2022-11-15T11:27:54;14.30;;;12.80;;
52608;SDS011;38503;48.544;12.142;2022-11-15T11:30:16;14.20;;;12.07;;
52608;SDS011;38503;48.544;12.142;2022-11-15T11:36:09;13.50;;;12.27;;
52608;SDS011;38503;48.544;12.142;2022-11-15T11:38:56;14.87;;;13.33;;
52608;SDS011;38503;48.544;12.142;2022-11-15T11:41:32;14.13;;;12.70;;
52608;SDS011;38503;48.544;12.142;2022-11-15T11:47:30;12.87;;;11.57;;
52608;SDS011;38503;48.544;12.142;2022-11-15T11:58:05;16.70;;;12.87;;
52608;SDS011;38503;48.544;12.142;2022-11-15T12:00:54;14.40;;;11.27;;
52608;SDS011;38503;48.544;12.142;2022-11-15T12:14:26;14.70;;;12.73;;
52608;SDS011;38503;48.544;12.142;2022-11-15T12:17:01;12.43;;;11.13;;
52608;SDS011;38503;48.544;12.142;2022-11-15T12:19:29;12.10;;;10.90;;
52608;SDS011;38503;48.544;12.142;2022-11-15T12:27:56;16.83;;;15.03;;
52608;SDS011;38503;48.544;12.142;2022-11-15T12:30:51;14.13;;;12.63;;
52608;SDS011;38503;48.544;12.142;2022-11-15T12:36:01;15.77;;;14.20;;
52608;SDS011;38503;48.544;12.142;2022-11-15T12:41:36;14.33;;;12.83;;
52608;SDS011;38503;48.544;12.142;2022-11-15T12:44:05;15.27;;;13.23;;
52608;SDS011;38503;48.544;12.142;2022-11-15T12:47:01;14.33;;;12.57;;
52608;SDS011;38503;48.544;12.142;2022-11-15T12:52:04;14.27;;;12.43;;
52608;SDS011;38503;48.544;12.142;2022-11-15T12:54:49;14.10;;;12.60;;
52608;SDS011;38503;48.544;12.142;2022-11-15T12:57:28;14.47;;;12.93;;
52608;SDS011;38503;48.544;12.142;2022-11-15T13:02:35;15.20;;;12.07;;
52608;SDS011;38503;48.544;12.142;2022-11-15T13:13:00;10.83;;;8.67;;
52608;SDS011;38503;48.544;12.142;2022-11-15T13:15:33;10.37;;;8.87;;
52608;SDS011;38503;48.544;12.142;2022-11-15T13:21:18;10.83;;;8.17;;
52608;SDS011;38503;48.544;12.142;2022-11-15T13:24:10;9.23;;;8.33;;
52608;SDS011;38503;48.544;12.142;2022-11-15T13:26:42;10.13;;;8.60;;
52608;SDS011;38503;48.544;12.142;2022-11-15T13:29:14;9.00;;;7.10;;
52608;SDS011;38503;48.544;12.142;2022-11-15T13:31:45;8.40;;;7.50;;
52608;SDS011;38503;48.544;12.142;2022-11-15T13:34:17;8.03;;;7.23;;
52608;SDS011;38503;48.544;12.142;2022-11-15T13:39:47;9.37;;;7.03;;
52608;SDS011;38503;48.544;12.142;2022-11-15T13:42:15;8.27;;;7.27;;
52608;SDS011;38503;48.544;12.142;2022-11-15T13:44:54;8.27;;;7.13;;
52608;SDS011;38503;48.544;12.142;2022-11-15T13:47:24;11.17;;;7.63;;
52608;SDS011;38503;48.544;12.142;2022-11-15T13:49:59;11.30;;;9.93;;
52608;SDS011;38503;48.544;12.142;2022-11-15T13:52:28;9.63;;;7.40;;
52608;SDS011;38503;48.544;12.142;2022-11-15T13:55:00;9.10;;;7.47;;
52608;SDS011;38503;48.544;12.142;2022-11-15T13:57:39;10.03;;;7.57;;
52608;SDS011;38503;48.544;12.142;2022-11-15T14:03:20;7.53;;;6.70;;
52608;SDS011;38503;48.544;12.142;2022-11-15T14:06:03;11.17;;;7.83;;
52608;SDS011;38503;48.544;12.142;2022-11-15T14:08:39;9.00;;;7.40;;
52608;SDS011;38503;48.544;12.142;2022-11-15T14:11:17;8.40;;;7.23;;
52608;SDS011;38503;48.544;12.142;2022-11-15T14:14:28;12.50;;;7.90;;
52608;SDS011;38503;48.544;12.142;2022-11-15T14:16:36;9.00;;;7.30;;
52608;SDS011;38503;48.544;12.142;2022-11-15T14:19:05;9.30;;;7.13;;
52608;SDS011;38503;48.544;12.142;2022-11-15T14:21:33;9.37;;;8.37;;
52608;SDS011;38503;48.544;12.142;2022-11-15T14:24:19;12.43;;;7.63;;
52608;SDS011;38503;48.544;12.142;2022-11-15T14:26:47;9.07;;;7.67;;
52608;SDS011;38503;48.544;12.142;2022-11-15T14:29:24;8.97;;;8.07;;
52608;SDS011;38503;48.544;12.142;2022-11-15T14:31:53;9.77;;;7.67;;
52608;SDS011;38503;48.544;12.142;2022-11-15T14:34:31;8.57;;;7.60;;
52608;SDS011;38503;48.544;12.142;2022-11-15T14:36:58;9.93;;;7.77;;
52608;SDS011;38503;48.544;12.142;2022-11-15T14:39:25;9.30;;;8.33;;
52608;SDS011;38503;48.544;12.142;2022-11-15T14:41:52;14.80;;;10.43;;
52608;SDS011;38503;48.544;12.142;2022-11-15T14:44:19;11.23;;;9.07;;
52608;SDS011;38503;48.544;12.142;2022-11-15T14:46:47;10.13;;;8.40;;
52608;SDS011;38503;48.544;12.142;2022-11-15T14:49:14;13.03;;;9.20;;
52608;SDS011;38503;48.544;12.142;2022-11-15T14:51:42;29.77;;;19.67;;
52608;SDS011;38503;48.544;12.142;2022-11-15T14:54:09;12.57;;;9.73;;
52608;SDS011;38503;48.544;12.142;2022-11-15T14:56:37;13.10;;;10.17;;
52608;SDS011;38503;48.544;12.142;2022-11-15T14:59:04;14.27;;;10.87;;
52608;SDS011;38503;48.544;12.142;2022-11-15T15:01:31;9.67;;;8.43;;
52608;SDS011;38503;48.544;12.142;2022-11-15T15:03:58;8.87;;;7.97;;
52608;SDS011;38503;48.544;12.142;2022-11-15T15:06:25;12.40;;;9.77;;
52608;SDS011;38503;48.544;12.142;2022-11-15T15:08:52;10.17;;;8.80;;
52608;SDS011;38503;48.544;12.142;2022-11-15T15:11:23;11.87;;;9.93;;
52608;SDS011;38503;48.544;12.142;2022-11-15T15:13:54;14.13;;;9.50;;
52608;SDS011;38503;48.544;12.142;2022-11-15T15:16:23;10.93;;;8.80;;
52608;SDS011;38503;48.544;12.142;2022-11-15T15:18:51;11.37;;;9.27;;
52608;SDS011;38503;48.544;12.142;2022-11-15T15:21:25;12.10;;;9.13;;
52608;SDS011;38503;48.544;12.142;2022-11-15T15:24:00;11.93;;;9.30;;
52608;SDS011;38503;48.544;12.142;2022-11-15T15:26:28;12.07;;;8.90;;
52608;SDS011;38503;48.544;12.142;2022-11-15T15:28:55;10.90;;;9.80;;
52608;SDS011;38503;48.544;12.142;2022-11-15T15:31:22;16.00;;;11.17;;
52608;SDS011;38503;48.544;12.142;2022-11-15T15:33:49;17.97;;;12.40;;
52608;SDS011;38503;48.544;12.142;2022-11-15T15:36:17;16.63;;;13.00;;
52608;SDS011;38503;48.544;12.142;2022-11-15T15:38:44;15.13;;;11.53;;
52608;SDS011;38503;48.544;12.142;2022-11-15T15:41:16;18.03;;;12.70;;
52608;SDS011;38503;48.544;12.142;2022-11-15T15:43:43;14.80;;;11.90;;
52608;SDS011;38503;48.544;12.142;2022-11-15T15:46:17;15.80;;;11.87;;
52608;SDS011;38503;48.544;12.142;2022-11-15T15:48:45;19.67;;;15.27;;
52608;SDS011;38503;48.544;12.142;2022-11-15T15:51:12;23.60;;;17.40;;
52608;SDS011;38503;48.544;12.142;2022-11-15T15:53:46;29.33;;;22.17;;
52608;SDS011;38503;48.544;12.142;2022-11-15T15:56:13;19.73;;;15.93;;
52608;SDS011;38503;48.544;12.142;2022-11-15T15:58:40;21.37;;;16.73;;
52608;SDS011;38503;48.544;12.142;2022-11-15T16:01:07;19.90;;;15.47;;
52608;SDS011;38503;48.544;12.142;2022-11-15T16:03:34;19.23;;;14.33;;
52608;SDS011;38503;48.544;12.142;2022-11-15T16:06:02;19.20;;;12.20;;
52608;SDS011;38503;48.544;12.142;2022-11-15T16:08:30;20.17;;;14.10;;
52608;SDS011;38503;48.544;12.142;2022-11-15T16:11:17;18.60;;;16.20;;
52608;SDS011;38503;48.544;12.142;2022-11-15T16:13:44;25.77;;;16.27;;
52608;SDS011;38503;48.544;12.142;2022-11-15T16:16:12;21.40;;;15.67;;
52608;SDS011;38503;48.544;12.142;2022-11-15T16:18:39;23.57;;;15.93;;
52608;SDS011;38503;48.544;12.142;2022-11-15T16:21:07;23.17;;;14.87;;
52608;SDS011;38503;48.544;12.142;2022-11-15T16:23:34;19.13;;;14.93;;
52608;SDS011;38503;48.544;12.142;2022-11-15T16:26:01;27.20;;;18.17;;
52608;SDS011;38503;48.544;12.142;2022-11-15T16:28:31;22.43;;;16.90;;
52608;SDS011;38503;48.544;12.142;2022-11-15T16:31:07;25.13;;;18.87;;
52608;SDS011;38503;48.544;12.142;2022-11-15T16:33:36;25.80;;;19.67;;
52608;SDS011;38503;48.544;12.142;2022-11-15T16:36:03;23.10;;;17.17;;
52608;SDS011;38503;48.544;12.142;2022-11-15T16:38:32;25.93;;;17.23;;
52608;SDS011;38503;48.544;12.142;2022-11-15T16:41:00;27.40;;;17.90;;
52608;SDS011;38503;48.544;12.142;2022-11-15T16:43:27;22.80;;;17.30;;
52608;SDS011;38503;48.544;12.142;2022-11-15T16:45:53;22.57;;;17.50;;